sensor_id;sensor_type;location;lat;lon;timestamp;P1;durP1;ratioP1;P2;durP2;ratioP2
37203;SDS011;23098;48.054;10.636;2023-04-24T00:00:35;0.98;;;0.70;;
37203;SDS011;23098;48.054;10.636;2023-04-24T00:03:01;0.60;;;0.60;;
37203;SDS011;23098;48.054;10.636;2023-04-24T00:05:28;0.80;;;0.60;;
37203;SDS011;23098;48.054;10.636;2023-04-24T00:07:53;0.98;;;0.60;;
37203;SDS011;23098;48.054;10.636;2023-04-24T00:10:20;1.40;;;0.65;;
37203;SDS011;23098;48.054;10.636;2023-04-24T00:12:46;1.63;;;0.88;;
37203;SDS011;23098;48.054;10.636;2023-04-24T00:15:12;1.52;;;0.60;;
37203;SDS011;23098;48.054;10.636;2023-04-24T00:17:38;0.85;;;0.68;;
37203;SDS011;23098;48.054;10.636;2023-04-24T00:20:04;1.15;;;0.50;;
37203;SDS011;23098;48.054;10.636;2023-04-24T00:22:31;1.02;;;0.70;;
37203;SDS011;23098;48.054;10.636;2023-04-24T00:24:57;1.83;;;0.65;;
37203;SDS011;23098;48.054;10.636;2023-04-24T00:27:23;0.60;;;0.60;;
37203;SDS011;23098;48.054;10.636;2023-04-24T00:29:48;1.35;;;0.65;;
37203;SDS011;23098;48.054;10.636;2023-04-24T00:32:14;1.67;;;0.68;;
37203;SDS011;23098;48.054;10.636;2023-04-24T00:34:40;0.57;;;0.50;;
37203;SDS011;23098;48.054;10.636;2023-04-24T00:37:06;0.70;;;0.50;;
37203;SDS011;23098;48.054;10.636;2023-04-24T00:39:32;2.90;;;0.52;;
37203;SDS011;23098;48.054;10.636;2023-04-24T00:41:58;0.70;;;0.60;;
37203;SDS011;23098;48.054;10.636;2023-04-24T00:44:24;1.77;;;0.68;;
37203;SDS011;23098;48.054;10.636;2023-04-24T00:46:49;0.73;;;0.50;;
37203;SDS011;23098;48.054;10.636;2023-04-24T00:49:19;2.58;;;0.80;;
37203;SDS011;23098;48.054;10.636;2023-04-24T00:51:48;0.60;;;0.60;;
37203;SDS011;23098;48.054;10.636;2023-04-24T00:54:16;1.20;;;0.70;;
37203;SDS011;23098;48.054;10.636;2023-04-24T00:56:42;1.80;;;0.68;;
37203;SDS011;23098;48.054;10.636;2023-04-24T00:59:08;1.73;;;0.70;;
37203;SDS011;23098;48.054;10.636;2023-04-24T01:01:34;1.42;;;0.63;;
37203;SDS011;23098;48.054;10.636;2023-04-24T01:04:01;0.50;;;0.50;;
37203;SDS011;23098;48.054;10.636;2023-04-24T01:06:28;2.08;;;0.77;;
37203;SDS011;23098;48.054;10.636;2023-04-24T01:08:56;2.58;;;0.88;;
37203;SDS011;23098;48.054;10.636;2023-04-24T01:11:22;0.70;;;0.70;;
37203;SDS011;23098;48.054;10.636;2023-04-24T01:13:48;1.05;;;0.70;;
37203;SDS011;23098;48.054;10.636;2023-04-24T01:16:14;0.85;;;0.55;;
37203;SDS011;23098;48.054;10.636;2023-04-24T01:18:42;0.77;;;0.77;;
37203;SDS011;23098;48.054;10.636;2023-04-24T01:21:08;0.60;;;0.60;;
37203;SDS011;23098;48.054;10.636;2023-04-24T01:23:36;2.17;;;0.63;;
37203;SDS011;23098;48.054;10.636;2023-04-24T01:26:01;0.80;;;0.70;;
37203;SDS011;23098;48.054;10.636;2023-04-24T01:28:27;0.60;;;0.60;;
37203;SDS011;23098;48.054;10.636;2023-04-24T01:30:54;2.75;;;0.88;;
37203;SDS011;23098;48.054;10.636;2023-04-24T01:33:20;1.02;;;0.70;;
37203;SDS011;23098;48.054;10.636;2023-04-24T01:35:47;0.57;;;0.50;;
37203;SDS011;23098;48.054;10.636;2023-04-24T01:38:13;2.10;;;1.00;;
37203;SDS011;23098;48.054;10.636;2023-04-24T01:40:39;0.98;;;0.70;;
37203;SDS011;23098;48.054;10.636;2023-04-24T01:43:05;0.70;;;0.60;;
37203;SDS011;23098;48.054;10.636;2023-04-24T01:45:31;1.40;;;0.80;;
37203;SDS011;23098;48.054;10.636;2023-04-24T01:47:56;0.90;;;0.80;;
37203;SDS011;23098;48.054;10.636;2023-04-24T01:50:22;1.25;;;0.85;;
37203;SDS011;23098;48.054;10.636;2023-04-24T01:52:49;0.90;;;0.70;;
37203;SDS011;23098;48.054;10.636;2023-04-24T01:55:15;0.88;;;0.70;;
37203;SDS011;23098;48.054;10.636;2023-04-24T01:57:41;1.05;;;0.70;;
37203;SDS011;23098;48.054;10.636;2023-04-24T02:00:07;1.45;;;0.70;;
37203;SDS011;23098;48.054;10.636;2023-04-24T02:02:33;0.80;;;0.80;;
37203;SDS011;23098;48.054;10.636;2023-04-24T02:04:59;3.22;;;0.60;;
37203;SDS011;23098;48.054;10.636;2023-04-24T02:07:25;1.48;;;0.80;;
37203;SDS011;23098;48.054;10.636;2023-04-24T02:09:51;1.55;;;0.73;;
37203;SDS011;23098;48.054;10.636;2023-04-24T02:12:16;2.88;;;1.08;;
37203;SDS011;23098;48.054;10.636;2023-04-24T02:14:45;1.77;;;0.70;;
37203;SDS011;23098;48.054;10.636;2023-04-24T02:17:10;1.38;;;0.90;;
37203;SDS011;23098;48.054;10.636;2023-04-24T02:19:37;1.50;;;1.00;;
37203;SDS011;23098;48.054;10.636;2023-04-24T02:22:02;0.82;;;0.68;;
37203;SDS011;23098;48.054;10.636;2023-04-24T02:24:28;1.17;;;0.90;;
37203;SDS011;23098;48.054;10.636;2023-04-24T02:26:53;1.90;;;0.98;;
37203;SDS011;23098;48.054;10.636;2023-04-24T02:29:19;2.92;;;0.80;;
37203;SDS011;23098;48.054;10.636;2023-04-24T02:31:45;1.27;;;0.77;;
37203;SDS011;23098;48.054;10.636;2023-04-24T02:34:10;1.52;;;0.95;;
37203;SDS011;23098;48.054;10.636;2023-04-24T02:36:36;1.27;;;1.10;;
37203;SDS011;23098;48.054;10.636;2023-04-24T02:39:01;1.05;;;0.95;;
37203;SDS011;23098;48.054;10.636;2023-04-24T02:41:28;1.83;;;1.02;;
37203;SDS011;23098;48.054;10.636;2023-04-24T02:43:57;2.25;;;1.00;;
37203;SDS011;23098;48.054;10.636;2023-04-24T02:46:23;1.38;;;1.10;;
37203;SDS011;23098;48.054;10.636;2023-04-24T02:48:48;1.25;;;1.00;;
37203;SDS011;23098;48.054;10.636;2023-04-24T02:51:14;1.02;;;0.90;;
37203;SDS011;23098;48.054;10.636;2023-04-24T02:53:39;1.08;;;0.95;;
37203;SDS011;23098;48.054;10.636;2023-04-24T02:56:05;2.63;;;0.90;;
37203;SDS011;23098;48.054;10.636;2023-04-24T02:58:31;1.52;;;1.10;;
37203;SDS011;23098;48.054;10.636;2023-04-24T03:00:56;1.20;;;0.90;;
37203;SDS011;23098;48.054;10.636;2023-04-24T03:03:22;1.20;;;0.73;;
37203;SDS011;23098;48.054;10.636;2023-04-24T03:05:48;2.45;;;0.88;;
37203;SDS011;23098;48.054;10.636;2023-04-24T03:08:14;2.47;;;0.80;;
37203;SDS011;23098;48.054;10.636;2023-04-24T03:10:41;1.48;;;0.80;;
37203;SDS011;23098;48.054;10.636;2023-04-24T03:13:07;0.82;;;0.63;;
37203;SDS011;23098;48.054;10.636;2023-04-24T03:15:32;0.80;;;0.75;;
37203;SDS011;23098;48.054;10.636;2023-04-24T03:17:58;1.70;;;0.80;;
37203;SDS011;23098;48.054;10.636;2023-04-24T03:20:23;1.90;;;0.70;;
37203;SDS011;23098;48.054;10.636;2023-04-24T03:22:49;0.80;;;0.63;;
37203;SDS011;23098;48.054;10.636;2023-04-24T03:25:15;1.70;;;0.60;;
37203;SDS011;23098;48.054;10.636;2023-04-24T03:27:40;1.35;;;0.70;;
37203;SDS011;23098;48.054;10.636;2023-04-24T03:30:06;1.25;;;0.73;;
37203;SDS011;23098;48.054;10.636;2023-04-24T03:32:32;2.40;;;0.70;;
37203;SDS011;23098;48.054;10.636;2023-04-24T03:34:58;0.70;;;0.63;;
37203;SDS011;23098;48.054;10.636;2023-04-24T03:37:23;1.30;;;0.70;;
37203;SDS011;23098;48.054;10.636;2023-04-24T03:39:49;0.77;;;0.60;;
37203;SDS011;23098;48.054;10.636;2023-04-24T03:42:15;0.88;;;0.70;;
37203;SDS011;23098;48.054;10.636;2023-04-24T03:44:40;2.53;;;0.70;;
37203;SDS011;23098;48.054;10.636;2023-04-24T03:47:06;1.13;;;0.60;;
37203;SDS011;23098;48.054;10.636;2023-04-24T03:49:31;1.05;;;0.60;;
37203;SDS011;23098;48.054;10.636;2023-04-24T03:51:57;0.85;;;0.60;;
37203;SDS011;23098;48.054;10.636;2023-04-24T03:54:22;1.00;;;0.60;;
37203;SDS011;23098;48.054;10.636;2023-04-24T03:56:48;0.60;;;0.60;;
37203;SDS011;23098;48.054;10.636;2023-04-24T03:59:13;0.55;;;0.50;;
37203;SDS011;23098;48.054;10.636;2023-04-24T04:01:39;2.20;;;0.70;;
37203;SDS011;23098;48.054;10.636;2023-04-24T04:04:04;0.57;;;0.50;;
37203;SDS011;23098;48.054;10.636;2023-04-24T04:06:33;1.60;;;0.70;;
37203;SDS011;23098;48.054;10.636;2023-04-24T04:08:59;1.50;;;0.70;;
37203;SDS011;23098;48.054;10.636;2023-04-24T04:11:25;0.60;;;0.50;;
37203;SDS011;23098;48.054;10.636;2023-04-24T04:13:51;1.02;;;0.70;;
37203;SDS011;23098;48.054;10.636;2023-04-24T04:16:17;0.55;;;0.50;;
37203;SDS011;23098;48.054;10.636;2023-04-24T04:18:43;0.50;;;0.50;;
37203;SDS011;23098;48.054;10.636;2023-04-24T04:21:09;0.60;;;0.50;;
37203;SDS011;23098;48.054;10.636;2023-04-24T04:23:35;0.93;;;0.70;;
37203;SDS011;23098;48.054;10.636;2023-04-24T04:26:00;0.50;;;0.50;;
37203;SDS011;23098;48.054;10.636;2023-04-24T04:28:26;0.80;;;0.43;;
37203;SDS011;23098;48.054;10.636;2023-04-24T04:30:52;0.65;;;0.50;;
37203;SDS011;23098;48.054;10.636;2023-04-24T04:33:19;0.77;;;0.57;;
37203;SDS011;23098;48.054;10.636;2023-04-24T04:35:45;0.70;;;0.50;;
37203;SDS011;23098;48.054;10.636;2023-04-24T04:38:13;0.50;;;0.50;;
37203;SDS011;23098;48.054;10.636;2023-04-24T04:40:39;0.98;;;0.60;;
37203;SDS011;23098;48.054;10.636;2023-04-24T04:43:05;0.43;;;0.43;;
37203;SDS011;23098;48.054;10.636;2023-04-24T04:45:31;0.30;;;0.30;;
37203;SDS011;23098;48.054;10.636;2023-04-24T04:47:57;0.60;;;0.40;;
37203;SDS011;23098;48.054;10.636;2023-04-24T04:50:25;0.70;;;0.50;;
37203;SDS011;23098;48.054;10.636;2023-04-24T04:52:51;1.15;;;0.50;;
37203;SDS011;23098;48.054;10.636;2023-04-24T04:55:17;1.52;;;0.80;;
37203;SDS011;23098;48.054;10.636;2023-04-24T04:57:44;0.75;;;0.55;;
37203;SDS011;23098;48.054;10.636;2023-04-24T05:00:10;1.85;;;0.65;;
37203;SDS011;23098;48.054;10.636;2023-04-24T05:02:37;1.35;;;0.50;;
37203;SDS011;23098;48.054;10.636;2023-04-24T05:05:05;0.55;;;0.43;;
37203;SDS011;23098;48.054;10.636;2023-04-24T05:07:32;0.60;;;0.60;;
37203;SDS011;23098;48.054;10.636;2023-04-24T05:09:57;0.40;;;0.40;;
37203;SDS011;23098;48.054;10.636;2023-04-24T05:12:23;0.80;;;0.60;;
37203;SDS011;23098;48.054;10.636;2023-04-24T05:14:48;0.80;;;0.50;;
37203;SDS011;23098;48.054;10.636;2023-04-24T05:17:14;0.65;;;0.40;;
37203;SDS011;23098;48.054;10.636;2023-04-24T05:19:40;0.30;;;0.30;;
37203;SDS011;23098;48.054;10.636;2023-04-24T05:22:06;1.38;;;0.40;;
37203;SDS011;23098;48.054;10.636;2023-04-24T05:24:35;0.40;;;0.32;;
37203;SDS011;23098;48.054;10.636;2023-04-24T05:27:01;0.32;;;0.25;;
37203;SDS011;23098;48.054;10.636;2023-04-24T05:29:29;0.52;;;0.50;;
37203;SDS011;23098;48.054;10.636;2023-04-24T05:31:56;0.55;;;0.40;;
37203;SDS011;23098;48.054;10.636;2023-04-24T05:34:22;0.50;;;0.30;;
37203;SDS011;23098;48.054;10.636;2023-04-24T05:36:48;0.45;;;0.45;;
37203;SDS011;23098;48.054;10.636;2023-04-24T05:39:15;0.60;;;0.40;;
37203;SDS011;23098;48.054;10.636;2023-04-24T05:41:41;1.25;;;0.40;;
37203;SDS011;23098;48.054;10.636;2023-04-24T05:44:07;1.55;;;0.52;;
37203;SDS011;23098;48.054;10.636;2023-04-24T05:46:32;0.25;;;0.25;;
37203;SDS011;23098;48.054;10.636;2023-04-24T05:48:58;0.40;;;0.40;;
37203;SDS011;23098;48.054;10.636;2023-04-24T05:51:23;0.30;;;0.30;;
37203;SDS011;23098;48.054;10.636;2023-04-24T05:53:49;0.43;;;0.40;;
37203;SDS011;23098;48.054;10.636;2023-04-24T05:56:15;0.55;;;0.50;;
37203;SDS011;23098;48.054;10.636;2023-04-24T05:58:40;1.60;;;0.50;;
37203;SDS011;23098;48.054;10.636;2023-04-24T06:01:06;0.30;;;0.30;;
37203;SDS011;23098;48.054;10.636;2023-04-24T06:03:32;1.58;;;0.30;;
37203;SDS011;23098;48.054;10.636;2023-04-24T06:05:57;0.70;;;0.40;;
37203;SDS011;23098;48.054;10.636;2023-04-24T06:08:23;0.22;;;0.20;;
37203;SDS011;23098;48.054;10.636;2023-04-24T06:10:49;0.30;;;0.30;;
37203;SDS011;23098;48.054;10.636;2023-04-24T06:13:14;0.65;;;0.30;;
37203;SDS011;23098;48.054;10.636;2023-04-24T06:15:40;0.55;;;0.40;;
37203;SDS011;23098;48.054;10.636;2023-04-24T06:18:06;0.30;;;0.30;;
37203;SDS011;23098;48.054;10.636;2023-04-24T06:20:40;0.55;;;0.38;;
37203;SDS011;23098;48.054;10.636;2023-04-24T06:23:06;0.80;;;0.60;;
37203;SDS011;23098;48.054;10.636;2023-04-24T06:25:32;2.05;;;0.75;;
37203;SDS011;23098;48.054;10.636;2023-04-24T06:27:58;0.40;;;0.40;;
37203;SDS011;23098;48.054;10.636;2023-04-24T06:30:23;0.40;;;0.38;;
37203;SDS011;23098;48.054;10.636;2023-04-24T06:32:49;0.82;;;0.40;;
37203;SDS011;23098;48.054;10.636;2023-04-24T06:35:15;0.45;;;0.40;;
37203;SDS011;23098;48.054;10.636;2023-04-24T06:37:41;0.68;;;0.30;;
37203;SDS011;23098;48.054;10.636;2023-04-24T06:40:07;0.30;;;0.30;;
37203;SDS011;23098;48.054;10.636;2023-04-24T06:42:33;1.98;;;0.50;;
37203;SDS011;23098;48.054;10.636;2023-04-24T06:44:59;0.32;;;0.32;;
37203;SDS011;23098;48.054;10.636;2023-04-24T06:47:25;0.35;;;0.32;;
37203;SDS011;23098;48.054;10.636;2023-04-24T06:49:51;1.20;;;0.40;;
37203;SDS011;23098;48.054;10.636;2023-04-24T06:52:17;0.30;;;0.30;;
37203;SDS011;23098;48.054;10.636;2023-04-24T06:54:43;0.30;;;0.30;;
37203;SDS011;23098;48.054;10.636;2023-04-24T06:57:09;1.50;;;0.60;;
37203;SDS011;23098;48.054;10.636;2023-04-24T06:59:35;0.32;;;0.30;;
37203;SDS011;23098;48.054;10.636;2023-04-24T07:02:01;1.02;;;0.40;;
37203;SDS011;23098;48.054;10.636;2023-04-24T07:04:27;0.35;;;0.32;;
37203;SDS011;23098;48.054;10.636;2023-04-24T07:06:53;1.27;;;0.35;;
37203;SDS011;23098;48.054;10.636;2023-04-24T07:09:20;0.40;;;0.40;;
37203;SDS011;23098;48.054;10.636;2023-04-24T07:11:47;1.05;;;0.30;;
37203;SDS011;23098;48.054;10.636;2023-04-24T07:14:13;0.20;;;0.20;;
37203;SDS011;23098;48.054;10.636;2023-04-24T07:16:38;1.08;;;0.40;;
37203;SDS011;23098;48.054;10.636;2023-04-24T07:19:04;1.58;;;0.30;;
37203;SDS011;23098;48.054;10.636;2023-04-24T07:21:31;0.32;;;0.20;;
37203;SDS011;23098;48.054;10.636;2023-04-24T07:23:57;0.80;;;0.20;;
37203;SDS011;23098;48.054;10.636;2023-04-24T07:26:23;0.20;;;0.20;;
37203;SDS011;23098;48.054;10.636;2023-04-24T07:28:50;0.55;;;0.38;;
37203;SDS011;23098;48.054;10.636;2023-04-24T07:31:15;1.15;;;0.80;;
37203;SDS011;23098;48.054;10.636;2023-04-24T07:33:40;3.78;;;1.40;;
37203;SDS011;23098;48.054;10.636;2023-04-24T07:36:06;2.75;;;1.40;;
37203;SDS011;23098;48.054;10.636;2023-04-24T07:38:32;4.30;;;1.80;;
37203;SDS011;23098;48.054;10.636;2023-04-24T07:40:57;2.30;;;2.00;;
37203;SDS011;23098;48.054;10.636;2023-04-24T07:43:23;2.42;;;1.45;;
37203;SDS011;23098;48.054;10.636;2023-04-24T07:45:51;3.97;;;1.88;;
37203;SDS011;23098;48.054;10.636;2023-04-24T07:48:17;2.35;;;1.27;;
37203;SDS011;23098;48.054;10.636;2023-04-24T07:50:43;2.42;;;1.90;;
37203;SDS011;23098;48.054;10.636;2023-04-24T07:53:09;1.40;;;1.10;;
37203;SDS011;23098;48.054;10.636;2023-04-24T07:55:35;1.63;;;1.40;;
37203;SDS011;23098;48.054;10.636;2023-04-24T07:58:01;2.88;;;1.60;;
37203;SDS011;23098;48.054;10.636;2023-04-24T08:00:27;2.17;;;1.63;;
37203;SDS011;23098;48.054;10.636;2023-04-24T08:02:52;4.05;;;2.05;;
37203;SDS011;23098;48.054;10.636;2023-04-24T08:05:18;3.13;;;1.85;;
37203;SDS011;23098;48.054;10.636;2023-04-24T08:07:43;3.45;;;1.90;;
37203;SDS011;23098;48.054;10.636;2023-04-24T08:10:11;6.15;;;2.10;;
37203;SDS011;23098;48.054;10.636;2023-04-24T08:12:36;2.47;;;1.83;;
37203;SDS011;23098;48.054;10.636;2023-04-24T08:15:02;3.90;;;1.65;;
37203;SDS011;23098;48.054;10.636;2023-04-24T08:17:29;3.70;;;1.77;;
37203;SDS011;23098;48.054;10.636;2023-04-24T08:19:54;2.67;;;1.60;;
37203;SDS011;23098;48.054;10.636;2023-04-24T08:22:26;2.17;;;1.67;;
37203;SDS011;23098;48.054;10.636;2023-04-24T08:24:52;3.15;;;1.40;;
37203;SDS011;23098;48.054;10.636;2023-04-24T08:27:18;2.75;;;1.83;;
37203;SDS011;23098;48.054;10.636;2023-04-24T08:29:43;2.65;;;1.50;;
37203;SDS011;23098;48.054;10.636;2023-04-24T08:32:09;1.90;;;1.50;;
37203;SDS011;23098;48.054;10.636;2023-04-24T08:34:35;2.03;;;1.60;;
37203;SDS011;23098;48.054;10.636;2023-04-24T08:37:02;1.77;;;1.35;;
37203;SDS011;23098;48.054;10.636;2023-04-24T08:39:28;1.50;;;1.30;;
37203;SDS011;23098;48.054;10.636;2023-04-24T08:41:57;2.22;;;1.50;;
37203;SDS011;23098;48.054;10.636;2023-04-24T08:44:30;2.30;;;1.65;;
37203;SDS011;23098;48.054;10.636;2023-04-24T08:46:57;3.08;;;1.60;;
37203;SDS011;23098;48.054;10.636;2023-04-24T08:49:23;2.45;;;1.70;;
37203;SDS011;23098;48.054;10.636;2023-04-24T08:51:50;1.30;;;1.17;;
37203;SDS011;23098;48.054;10.636;2023-04-24T08:54:16;2.75;;;1.50;;
37203;SDS011;23098;48.054;10.636;2023-04-24T08:56:44;1.63;;;1.30;;
37203;SDS011;23098;48.054;10.636;2023-04-24T08:59:12;2.38;;;1.20;;
37203;SDS011;23098;48.054;10.636;2023-04-24T09:01:38;1.15;;;1.05;;
37203;SDS011;23098;48.054;10.636;2023-04-24T09:04:05;1.30;;;1.08;;
37203;SDS011;23098;48.054;10.636;2023-04-24T09:06:34;1.65;;;0.90;;
37203;SDS011;23098;48.054;10.636;2023-04-24T09:09:00;1.30;;;1.20;;
37203;SDS011;23098;48.054;10.636;2023-04-24T09:11:27;1.30;;;1.05;;
37203;SDS011;23098;48.054;10.636;2023-04-24T09:13:53;0.90;;;0.80;;
37203;SDS011;23098;48.054;10.636;2023-04-24T09:16:19;1.08;;;0.90;;
37203;SDS011;23098;48.054;10.636;2023-04-24T09:18:45;1.08;;;0.80;;
37203;SDS011;23098;48.054;10.636;2023-04-24T09:21:11;1.88;;;1.08;;
37203;SDS011;23098;48.054;10.636;2023-04-24T09:23:36;2.08;;;1.25;;
37203;SDS011;23098;48.054;10.636;2023-04-24T09:26:03;1.80;;;1.00;;
37203;SDS011;23098;48.054;10.636;2023-04-24T09:33:34;1.65;;;1.20;;
37203;SDS011;23098;48.054;10.636;2023-04-24T09:36:01;1.08;;;0.98;;
37203;SDS011;23098;48.054;10.636;2023-04-24T09:38:31;0.98;;;0.70;;
37203;SDS011;23098;48.054;10.636;2023-04-24T09:41:00;1.80;;;0.95;;
37203;SDS011;23098;48.054;10.636;2023-04-24T09:43:28;0.95;;;0.70;;
37203;SDS011;23098;48.054;10.636;2023-04-24T09:45:57;1.90;;;0.63;;
37203;SDS011;23098;48.054;10.636;2023-04-24T09:48:31;1.52;;;1.00;;
37203;SDS011;23098;48.054;10.636;2023-04-24T09:51:01;0.80;;;0.60;;
37203;SDS011;23098;48.054;10.636;2023-04-24T09:53:29;2.80;;;0.80;;
37203;SDS011;23098;48.054;10.636;2023-04-24T09:55:55;1.30;;;0.80;;
37203;SDS011;23098;48.054;10.636;2023-04-24T09:58:26;0.85;;;0.80;;
37203;SDS011;23098;48.054;10.636;2023-04-24T10:00:54;2.28;;;0.77;;
37203;SDS011;23098;48.054;10.636;2023-04-24T10:03:21;0.70;;;0.70;;
37203;SDS011;23098;48.054;10.636;2023-04-24T10:05:51;0.75;;;0.68;;
37203;SDS011;23098;48.054;10.636;2023-04-24T10:08:17;3.60;;;0.95;;
37203;SDS011;23098;48.054;10.636;2023-04-24T10:10:43;2.20;;;1.02;;
37203;SDS011;23098;48.054;10.636;2023-04-24T10:13:10;2.08;;;0.90;;
37203;SDS011;23098;48.054;10.636;2023-04-24T10:15:37;1.23;;;1.10;;
37203;SDS011;23098;48.054;10.636;2023-04-24T10:18:07;1.27;;;0.80;;
37203;SDS011;23098;48.054;10.636;2023-04-24T10:20:34;1.25;;;1.00;;
37203;SDS011;23098;48.054;10.636;2023-04-24T10:23:01;2.38;;;1.02;;
37203;SDS011;23098;48.054;10.636;2023-04-24T10:25:28;0.90;;;0.90;;
37203;SDS011;23098;48.054;10.636;2023-04-24T10:27:55;3.95;;;1.00;;
37203;SDS011;23098;48.054;10.636;2023-04-24T10:30:24;1.55;;;1.17;;
37203;SDS011;23098;48.054;10.636;2023-04-24T10:32:51;4.00;;;1.40;;
37203;SDS011;23098;48.054;10.636;2023-04-24T10:35:17;1.23;;;0.98;;
37203;SDS011;23098;48.054;10.636;2023-04-24T10:38:18;1.65;;;1.00;;
37203;SDS011;23098;48.054;10.636;2023-04-24T10:40:37;3.03;;;1.55;;
37203;SDS011;23098;48.054;10.636;2023-04-24T10:43:03;2.72;;;1.25;;
37203;SDS011;23098;48.054;10.636;2023-04-24T10:45:34;1.35;;;0.80;;
37203;SDS011;23098;48.054;10.636;2023-04-24T10:48:02;1.20;;;1.10;;
37203;SDS011;23098;48.054;10.636;2023-04-24T10:53:16;3.00;;;1.35;;
37203;SDS011;23098;48.054;10.636;2023-04-24T10:58:15;2.05;;;1.33;;
37203;SDS011;23098;48.054;10.636;2023-04-24T11:00:42;4.30;;;1.52;;
37203;SDS011;23098;48.054;10.636;2023-04-24T11:06:15;2.00;;;1.30;;
37203;SDS011;23098;48.054;10.636;2023-04-24T11:08:44;1.33;;;1.00;;
37203;SDS011;23098;48.054;10.636;2023-04-24T11:11:15;0.95;;;0.90;;
37203;SDS011;23098;48.054;10.636;2023-04-24T11:16:42;1.45;;;1.00;;
37203;SDS011;23098;48.054;10.636;2023-04-24T11:19:22;1.45;;;0.75;;
37203;SDS011;23098;48.054;10.636;2023-04-24T11:21:55;1.10;;;1.00;;
37203;SDS011;23098;48.054;10.636;2023-04-24T11:24:54;2.85;;;1.20;;
37203;SDS011;23098;48.054;10.636;2023-04-24T11:27:19;1.10;;;0.90;;
37203;SDS011;23098;48.054;10.636;2023-04-24T11:35:17;1.25;;;1.00;;
37203;SDS011;23098;48.054;10.636;2023-04-24T11:37:46;1.83;;;1.00;;
37203;SDS011;23098;48.054;10.636;2023-04-24T11:40:16;3.50;;;1.00;;
37203;SDS011;23098;48.054;10.636;2023-04-24T11:42:46;2.78;;;1.27;;
37203;SDS011;23098;48.054;10.636;2023-04-24T11:45:17;2.45;;;1.08;;
37203;SDS011;23098;48.054;10.636;2023-04-24T11:47:50;2.92;;;1.02;;
37203;SDS011;23098;48.054;10.636;2023-04-24T11:50:16;1.00;;;0.90;;
37203;SDS011;23098;48.054;10.636;2023-04-24T11:52:44;1.48;;;1.10;;
37203;SDS011;23098;48.054;10.636;2023-04-24T11:57:41;0.95;;;0.85;;
37203;SDS011;23098;48.054;10.636;2023-04-24T12:00:14;0.80;;;0.80;;
37203;SDS011;23098;48.054;10.636;2023-04-24T12:02:44;2.67;;;0.98;;
37203;SDS011;23098;48.054;10.636;2023-04-24T12:05:19;3.55;;;1.20;;
37203;SDS011;23098;48.054;10.636;2023-04-24T12:07:46;0.90;;;0.90;;
37203;SDS011;23098;48.054;10.636;2023-04-24T12:10:11;1.20;;;1.00;;
37203;SDS011;23098;48.054;10.636;2023-04-24T12:12:37;1.27;;;1.02;;
37203;SDS011;23098;48.054;10.636;2023-04-24T12:15:06;1.20;;;0.90;;
37203;SDS011;23098;48.054;10.636;2023-04-24T12:17:33;1.63;;;0.88;;
37203;SDS011;23098;48.054;10.636;2023-04-24T12:20:05;1.20;;;0.82;;
37203;SDS011;23098;48.054;10.636;2023-04-24T12:22:51;1.70;;;1.23;;
37203;SDS011;23098;48.054;10.636;2023-04-24T12:25:24;1.27;;;1.02;;
37203;SDS011;23098;48.054;10.636;2023-04-24T12:30:33;1.08;;;0.90;;
37203;SDS011;23098;48.054;10.636;2023-04-24T12:33:00;3.03;;;0.80;;
37203;SDS011;23098;48.054;10.636;2023-04-24T12:35:28;1.85;;;1.00;;
37203;SDS011;23098;48.054;10.636;2023-04-24T12:37:54;2.55;;;1.10;;
37203;SDS011;23098;48.054;10.636;2023-04-24T12:40:20;1.83;;;1.10;;
37203;SDS011;23098;48.054;10.636;2023-04-24T12:42:48;1.58;;;0.95;;
37203;SDS011;23098;48.054;10.636;2023-04-24T12:45:17;4.72;;;1.23;;
37203;SDS011;23098;48.054;10.636;2023-04-24T12:47:43;1.85;;;1.00;;
37203;SDS011;23098;48.054;10.636;2023-04-24T12:50:10;2.55;;;1.00;;
37203;SDS011;23098;48.054;10.636;2023-04-24T12:52:40;3.00;;;1.23;;
37203;SDS011;23098;48.054;10.636;2023-04-24T12:55:06;0.95;;;0.90;;
37203;SDS011;23098;48.054;10.636;2023-04-24T12:57:33;3.42;;;1.48;;
37203;SDS011;23098;48.054;10.636;2023-04-24T13:00:00;1.10;;;1.00;;
37203;SDS011;23098;48.054;10.636;2023-04-24T13:02:27;4.05;;;1.10;;
37203;SDS011;23098;48.054;10.636;2023-04-24T13:04:56;3.13;;;1.20;;
37203;SDS011;23098;48.054;10.636;2023-04-24T13:07:23;2.75;;;0.93;;
37203;SDS011;23098;48.054;10.636;2023-04-24T13:09:49;1.77;;;1.10;;
37203;SDS011;23098;48.054;10.636;2023-04-24T13:12:19;1.40;;;0.93;;
37203;SDS011;23098;48.054;10.636;2023-04-24T13:14:45;1.80;;;1.00;;
37203;SDS011;23098;48.054;10.636;2023-04-24T13:17:10;2.78;;;1.00;;
37203;SDS011;23098;48.054;10.636;2023-04-24T13:19:37;1.27;;;1.00;;
37203;SDS011;23098;48.054;10.636;2023-04-24T13:22:04;1.60;;;1.00;;
37203;SDS011;23098;48.054;10.636;2023-04-24T13:24:30;1.10;;;1.00;;
37203;SDS011;23098;48.054;10.636;2023-04-24T13:26:56;3.58;;;1.08;;
37203;SDS011;23098;48.054;10.636;2023-04-24T13:29:23;2.95;;;1.13;;
37203;SDS011;23098;48.054;10.636;2023-04-24T13:31:50;1.17;;;0.90;;
37203;SDS011;23098;48.054;10.636;2023-04-24T13:34:16;1.75;;;1.00;;
37203;SDS011;23098;48.054;10.636;2023-04-24T13:36:42;2.53;;;1.17;;
37203;SDS011;23098;48.054;10.636;2023-04-24T13:39:08;2.42;;;1.10;;
37203;SDS011;23098;48.054;10.636;2023-04-24T13:41:34;1.95;;;1.30;;
37203;SDS011;23098;48.054;10.636;2023-04-24T13:44:01;3.42;;;1.20;;
37203;SDS011;23098;48.054;10.636;2023-04-24T13:46:27;3.03;;;1.20;;
37203;SDS011;23098;48.054;10.636;2023-04-24T13:48:52;2.80;;;1.20;;
37203;SDS011;23098;48.054;10.636;2023-04-24T13:51:18;2.78;;;1.35;;
37203;SDS011;23098;48.054;10.636;2023-04-24T13:53:43;2.00;;;1.20;;
37203;SDS011;23098;48.054;10.636;2023-04-24T13:56:09;2.35;;;1.13;;
37203;SDS011;23098;48.054;10.636;2023-04-24T13:58:35;1.58;;;1.20;;
37203;SDS011;23098;48.054;10.636;2023-04-24T14:01:02;1.75;;;1.10;;
37203;SDS011;23098;48.054;10.636;2023-04-24T14:03:28;3.15;;;0.77;;
37203;SDS011;23098;48.054;10.636;2023-04-24T14:05:54;1.60;;;1.00;;
37203;SDS011;23098;48.054;10.636;2023-04-24T14:08:19;2.33;;;1.00;;
37203;SDS011;23098;48.054;10.636;2023-04-24T14:10:45;1.80;;;1.00;;
37203;SDS011;23098;48.054;10.636;2023-04-24T14:13:10;1.38;;;0.90;;
37203;SDS011;23098;48.054;10.636;2023-04-24T14:15:36;2.00;;;0.90;;
37203;SDS011;23098;48.054;10.636;2023-04-24T14:18:02;4.13;;;1.20;;
37203;SDS011;23098;48.054;10.636;2023-04-24T14:20:28;1.80;;;1.10;;
37203;SDS011;23098;48.054;10.636;2023-04-24T14:22:53;3.47;;;0.90;;
37203;SDS011;23098;48.054;10.636;2023-04-24T14:25:19;2.65;;;1.00;;
37203;SDS011;23098;48.054;10.636;2023-04-24T14:27:44;1.77;;;0.80;;
37203;SDS011;23098;48.054;10.636;2023-04-24T14:30:11;1.35;;;1.05;;
37203;SDS011;23098;48.054;10.636;2023-04-24T14:32:38;2.75;;;0.98;;
37203;SDS011;23098;48.054;10.636;2023-04-24T14:35:04;2.85;;;1.00;;
37203;SDS011;23098;48.054;10.636;2023-04-24T14:37:31;1.38;;;0.93;;
37203;SDS011;23098;48.054;10.636;2023-04-24T14:39:56;3.85;;;1.08;;
37203;SDS011;23098;48.054;10.636;2023-04-24T14:42:22;2.55;;;1.05;;
37203;SDS011;23098;48.054;10.636;2023-04-24T14:44:47;1.50;;;1.05;;
37203;SDS011;23098;48.054;10.636;2023-04-24T14:47:13;2.15;;;1.30;;
37203;SDS011;23098;48.054;10.636;2023-04-24T14:49:39;3.25;;;1.00;;
37203;SDS011;23098;48.054;10.636;2023-04-24T14:52:04;5.00;;;1.60;;
37203;SDS011;23098;48.054;10.636;2023-04-24T14:54:30;1.90;;;1.15;;
37203;SDS011;23098;48.054;10.636;2023-04-24T14:56:55;3.03;;;0.90;;